»·PEaware :: GDS29 KRNO-KSJC

GDS29 :: KRNO-KSJC

FLIGHT INFORMATION

Flight Status: Arrived
Operator: Unknown
More flights by this operator :: More flights under this callsign
Pilot: Ryan B. (8502)
Aircraft: Unknown
(B58)
More flights by this aircraft type
Origin: KRNO Reno/Tahoe Intl
United States
Destination: KSJC Mineta San Jose Intl
United States
More flights between these airports :: More routes between these airports
Route: +RENO9 HUYJO V28 ALTAM V334 SJC
File this flight plan on PilotEdge
Remarks:
Altitude:
(Current/Filed)
12,000ft
Speed:
(Current/Filed)
200kts
Departed: 11-Oct-17 05:14 PM
Arrived: 11-Oct-17 06:23 PM
Distance/Time
Traveled:
163nm/1:09
Distance/Time
To Go:
Arrived

Flight Plot

Page will automatically refresh every two minutes.

Flight plan parsing failed; only flown route is shown


Map Options




Map Legend


Flown Route
Filed Route
Departure Airport
Arrival Airport
Navaid (VOR, NDB)
Fix

Horizontal Profiles

Position Reports

Time Latitude Longitude Heading Altitude Ground
Speed
11-Oct-17 17:00 39.500338 -119.764472 180 4402ft 0kts
11-Oct-17 17:01 39.500338 -119.764471 180 4402ft 0kts
11-Oct-17 17:02 39.500338 -119.764471 180 4402ft 0kts
11-Oct-17 17:03 39.500338 -119.764471 180 4402ft 0kts
11-Oct-17 17:04 39.500338 -119.764471 180 4402ft 0kts
11-Oct-17 17:05 39.500338 -119.764471 180 4402ft 0kts
11-Oct-17 17:06 39.500338 -119.764471 180 4402ft 0kts
11-Oct-17 17:07 39.500338 -119.764471 180 4402ft 0kts
11-Oct-17 17:08 39.500338 -119.764471 180 4402ft 0kts
11-Oct-17 17:09 39.500338 -119.764471 180 4402ft 0kts
11-Oct-17 17:10 39.500338 -119.764471 180 4402ft 0kts
11-Oct-17 17:11 39.500338 -119.764471 180 4402ft 0kts
11-Oct-17 17:12 39.500300 -119.764472 180 4402ft 2kts
11-Oct-17 17:13 39.498677 -119.765195 181 4400ft 14kts
11-Oct-17 17:14 39.497581 -119.765105 152 4400ft 11kts
11-Oct-17 17:15 39.497266 -119.757987 93 4396ft 0kts
11-Oct-17 17:16 39.497125 -119.757408 134 4396ft 2kts
11-Oct-17 17:17 39.496219 -119.758431 270 4396ft 18kts
11-Oct-17 17:18 39.497127 -119.786103 277 5127ft 114kts
11-Oct-17 17:19 39.525050 -119.793416 356 6111ft 140kts
11-Oct-17 17:20 39.564745 -119.794566 352 7284ft 137kts
11-Oct-17 17:21 39.602243 -119.795531 353 8435ft 137kts
11-Oct-17 17:22 39.638696 -119.802131 302 9426ft 128kts
11-Oct-17 17:23 39.639964 -119.847430 235 10302ft 138kts
11-Oct-17 17:24 39.608962 -119.879118 222 11123ft 143kts
11-Oct-17 17:25 39.571556 -119.896498 194 11921ft 148kts
11-Oct-17 17:26 39.533029 -119.920845 223 12034ft 169kts
11-Oct-17 17:27 39.495127 -119.960170 223 12037ft 178kts
11-Oct-17 17:28 39.456505 -120.000353 223 12054ft 178kts
11-Oct-17 17:29 39.409847 -120.022676 194 12065ft 187kts
11-Oct-17 17:30 39.358502 -120.033503 194 12072ft 187kts
11-Oct-17 17:31 39.306994 -120.044365 194 12073ft 188kts
11-Oct-17 17:32 39.255459 -120.055218 194 12073ft 188kts
11-Oct-17 17:33 39.203872 -120.066067 194 12073ft 188kts
11-Oct-17 17:34 39.152206 -120.076919 194 12068ft 188kts
11-Oct-17 17:35 39.100535 -120.087765 194 12062ft 188kts
11-Oct-17 17:36 39.048943 -120.098584 194 12056ft 188kts
11-Oct-17 17:37 38.997600 -120.109480 194 12054ft 185kts
11-Oct-17 17:38 38.947662 -120.121135 193 12052ft 179kts
11-Oct-17 17:39 38.899622 -120.134377 193 12052ft 175kts
11-Oct-17 17:40 38.855605 -120.152659 200 12056ft 174kts
11-Oct-17 17:41 38.810272 -120.175138 200 12055ft 174kts
11-Oct-17 17:42 38.765097 -120.197761 200 12055ft 174kts
11-Oct-17 17:44 38.719899 -120.220428 200 12055ft 174kts
11-Oct-17 17:45 38.674811 -120.243024 200 12055ft 174kts
11-Oct-17 17:46 38.630369 -120.267640 220 12051ft 176kts
11-Oct-17 17:47 38.596400 -120.312807 223 12052ft 176kts
11-Oct-17 17:48 38.562422 -120.358090 223 12050ft 177kts
11-Oct-17 17:49 38.528346 -120.403576 223 12039ft 177kts
11-Oct-17 17:50 38.494294 -120.449036 223 12025ft 177kts
11-Oct-17 17:51 38.460256 -120.494387 223 12057ft 175kts
11-Oct-17 17:52 38.426372 -120.539464 223 12048ft 177kts
11-Oct-17 17:53 38.392257 -120.584801 223 12039ft 177kts
11-Oct-17 17:54 38.358229 -120.629947 223 12039ft 177kts
11-Oct-17 17:55 38.324570 -120.674528 223 12040ft 177kts
11-Oct-17 17:56 38.290510 -120.719595 223 12039ft 177kts
11-Oct-17 17:57 38.256414 -120.764639 223 12038ft 177kts
11-Oct-17 17:58 38.222277 -120.809662 223 12038ft 176kts
11-Oct-17 17:59 38.188203 -120.854540 223 12019ft 178kts
11-Oct-17 18:00 38.152404 -120.901560 223 11532ft 190kts
11-Oct-17 18:01 38.115313 -120.950249 224 11032ft 193kts
11-Oct-17 18:02 38.077912 -120.999016 225 10530ft 193kts
11-Oct-17 18:03 38.040479 -121.048094 227 10024ft 194kts
11-Oct-17 18:04 38.002909 -121.097572 228 9523ft 197kts
11-Oct-17 18:05 37.964470 -121.148212 229 9026ft 201kts
11-Oct-17 18:06 37.925137 -121.199950 230 8534ft 207kts
11-Oct-17 18:07 37.885225 -121.252373 230 8052ft 209kts
11-Oct-17 18:08 37.846060 -121.303546 230 8023ft 197kts
11-Oct-17 18:09 37.808151 -121.353095 230 8025ft 195kts
11-Oct-17 18:10 37.773321 -121.398552 230 8025ft 194kts
11-Oct-17 18:11 37.735738 -121.447454 230 8025ft 194kts
11-Oct-17 18:12 37.697996 -121.496548 230 8029ft 195kts
11-Oct-17 18:13 37.653108 -121.532879 191 7817ft 211kts
11-Oct-17 18:14 37.594012 -121.544005 191 7328ft 216kts
11-Oct-17 18:15 37.534278 -121.554926 191 6822ft 217kts
11-Oct-17 18:16 37.474379 -121.566260 191 6320ft 219kts
11-Oct-17 18:17 37.414703 -121.577955 191 6079ft 212kts
11-Oct-17 18:18 37.356967 -121.589251 191 6081ft 208kts
11-Oct-17 18:19 37.299839 -121.600369 191 6081ft 207kts
11-Oct-17 18:20 37.245216 -121.621344 221 5744ft 211kts
11-Oct-17 18:21 37.199623 -121.668151 221 5190ft 213kts
11-Oct-17 18:22 37.192412 -121.734235 282 4518ft 212kts
11-Oct-17 18:23 37.230560 -121.785364 316 3371ft 190kts
11-Oct-17 18:24 37.266929 -121.825324 318 2389ft 160kts
11-Oct-17 18:25 37.299497 -121.860825 319 1544ft 150kts
11-Oct-17 18:26 37.327945 -121.891811 319 829ft 116kts
11-Oct-17 18:27 37.350408 -121.916453 319 248ft 93kts
11-Oct-17 18:28 37.365071 -121.932497 318 44ft 32kts

Navigation Log

Ident Type
Flight plan parsing failed, navigation log unavailable